Reportages photos

Connexion

10Km

10 KM RUES & RUN DESVRES du 20/12/15 (Reelle 10,38)
Rang Dossard Nom Prénom Temps Cat Rang Cat Ecart Ecart Cat Club Vitesse Km/h Temps au Km
1 376 PRUVOST YOHAN 00:34:00 SEM 1 00:00:00 00:00:00 AS MARCK 18,318 03:17
2 446 BOULOGNE JEREMY 00:35:58 V1M 1 00:01:58 00:00:00 AC AUDOMAROIS 17,316 03:28
3 305 LEPRETRE JEROME 00:36:09 SEM 2 00:02:09 00:02:09 ENTENTE MARITIME ATHL. 17,228 03:29
4 481 BRUNO OLIVIER 00:38:06 V1M 2 00:04:06 00:02:08 OMNISPORT AIROIS 16,346 03:40
5 419 BRUNET MICKAEL 00:38:06 SEM 3 00:04:06 00:04:06 BLANC NEZ TRIATHLON 16,346 03:40
6 308 CONDETTE JEAN-MICHEL 00:38:09 V1M 3 00:04:09 00:02:11 ENTENTE MARITIME ATHL. 16,325 03:41
7 235 DUCLOY KEVIN 00:38:12 SEM 4 00:04:12 00:04:12 SAINT MARTIN ATHLETISME 16,304 03:41
8 528 DUFRESNE FABIEN 00:38:23 SEM 5 00:04:23 00:04:23 NON LICENCIE 16,226 03:42
9 399 LOEUILLIEUX STEPHANE 00:38:39 V1M 4 00:04:39 00:02:41 ENTENTE MARITIME ATHL. 16,114 03:43
10 504 FOUBLE LAURENT 00:38:42 SEM 6 00:04:42 00:04:42 MARQUISE ATHLETISME 16,093 03:44
11 517 PRUVOT LUDOVIC 00:38:51 V1M 5 00:04:51 00:02:53 NON LICENCIE 16,031 03:45
12 267 CLABAUT ALEXIS 00:39:02 SEM 7 00:05:02 00:05:02 PATRIOTES CROSS DE GUINES 15,956 03:46
13 328 DUCROCQ MARC-ANTOINE 00:39:06 SEM 8 00:05:06 00:05:06 LE DRAPEAU 15,928 03:46
14 238 MACQUINGHEN CHRISTOPHE 00:39:12 SEM 9 00:05:12 00:05:12 SAINT MARTIN ATHLETISME 15,888 03:47
15 326 CARDON FLORIAN 00:39:15 SEM 10 00:05:15 00:05:15 LE DRAPEAU 15,868 03:47
16 220 MARYNIAK WILLIAM 00:39:20 SEM 11 00:05:20 00:05:20 NON LICENCIE 15,834 03:47
17 427 GRIGNON SAMUEL 00:39:59 SEM 12 00:05:59 00:05:59 15,576 03:51
18 482 PERRAULT DAVID 00:40:12 V1M 6 00:06:12 00:04:14 AS CAMIERS 15,493 03:52
19 478 GOZE PHILIPPE 00:40:13 V1M 7 00:06:13 00:04:15 OMNISPORT AIROIS 15,486 03:52
20 530 DEBCONDE CEDRIC 00:40:16 SEM 13 00:06:16 00:06:16 NON LICENCIE 15,467 03:53
21 297 LEVEL FABIEN 00:40:26 SEM 14 00:06:26 00:06:26 ATHLETIQUE CLUB CAPELLOIS 15,403 03:54
22 426 DUHAMEL PHILIPPE 00:40:30 V2M 1 00:06:30 00:00:00 NON LICENCIE 15,378 03:54
23 251 DUCROCQ ARNAUD 00:40:32 V1M 8 00:06:32 00:04:34 PATRIOTES CROSS DE GUINES 15,365 03:54
24 296 LEBLOND ARNAUD 00:40:35 V1M 9 00:06:35 00:04:37 ATHLETIQUE CLUB CAPELLOIS 15,346 03:55
25 264 DUCROCQ LINDA 00:40:44 SEF 1 00:06:44 00:00:00 PATRIOTES CROSS DE GUINES 15,290 03:55
26 325 DOCQUOIS FREDERIC 00:40:49 V1M 10 00:06:49 00:04:51 LE DRAPEAU 15,258 03:56
27 431 DOURIEZ THIERRY 00:40:53 V2M 2 00:06:53 00:00:23 15,234 03:56
28 275 DELLIAUX EMMANUEL 00:41:10 V1M 11 00:07:10 00:05:12 TEAM TRAIL 62 15,129 03:58
29 274 DEFACHELLE GEOFFREY 00:41:11 SEM 15 00:07:11 00:07:11 TEAM TRAIL 62 15,123 03:58
30 215 BEGUE XAVIER 00:41:26 V1M 12 00:07:26 00:05:28 NON LICENCIE 15,031 03:59
31 249 PIERRU REYNALD 00:41:34 V1M 13 00:07:34 00:05:36 PATRIOTES CROSS DE GUINES 14,983 04:00
32 346 BADON EMMANUEL 00:41:36 SEM 16 00:07:36 00:07:36 ATHLETISME CLUB OUTREAU 14,971 04:00
33 283 VAILLANT JEROME 00:41:44 SEM 17 00:07:44 00:07:44 TEAM TRAIL 62 14,923 04:01
34 221 GUILBERT FABIEN 00:41:45 SEM 18 00:07:45 00:07:45 NON LICENCIE 14,917 04:01
35 387 COULLIOT AMELIE 00:41:47 V1F 1 00:07:47 00:00:00 FREVENT OLYMPIC CLUB 14,905 04:02
36 304 ROBART RUDY 00:41:48 SEM 19 00:07:48 00:07:48 MARQUISE 14,900 04:02
37 250 MAZURIER ALAIN 00:41:52 V2M 3 00:07:52 00:01:22 PATRIOTES CROSS DE GUINES 14,876 04:02
38 411 LEHON LUDOVIC 00:41:57 SEM 20 00:07:57 00:07:57 ATHLETISME CLUB OUTREAU 14,846 04:02
39 288 BRIEZ ARNAUD 00:42:17 V1M 14 00:08:17 00:06:19 ATHLETIQUE CLUB CAPELLOIS 14,729 04:04
40 519 HONVAULT AURELIEN 00:42:25 SEM 21 00:08:25 00:08:25 NON LICENCIE 14,683 04:05
41 470 GIROUD FRANCK 00:42:34 V1M 15 00:08:34 00:06:36 A.S. MARCK 14,631 04:06
42 520 DUFOUR CHANTAL 00:42:35 V1F 2 00:08:35 00:00:48 TOUQUET OPALE ATHLETISME 14,625 04:06
43 273 DACQUIN FABIEN 00:42:47 V1M 16 00:08:47 00:06:49 TEAM TRAIL 62 14,557 04:07
44 214 COUBELLE OLIVIER 00:42:47 V1M 17 00:08:47 00:06:49 14,557 04:07
45 403 DESACHY MARC 00:42:48 V1M 18 00:08:48 00:06:50 ATHLETISME CLUB OUTREAU 14,551 04:07
46 371 RAY SAMUEL 00:42:52 V1M 19 00:08:52 00:06:54 NON LICENCIE 14,529 04:08
47 381 BRIEZ CYRILLE 00:43:02 SEM 22 00:09:02 00:09:02 NON LICENCIE 14,473 04:09
48 510 FRERE GUILLAUME 00:43:03 SEM 23 00:09:03 00:09:03 NON LICENCIE 14,467 04:09
49 312 HOLLEBECQUE MARTIN 00:43:06 SEM 24 00:09:06 00:09:06 WIMEREUX RUNNING CLUB 14,450 04:09
50 311 RIVET JEAN-FRANCOIS 00:43:06 V1M 20 00:09:06 00:07:08 WIMEREUX RUNNING CLUB 14,450 04:09
51 409 LANOY STEPHANE 00:43:08 V1M 21 00:09:08 00:07:10 ATHLETISME CLUB OUTREAU 14,439 04:09
52 410 LEFEVRE KEVIN 00:43:08 SEM 25 00:09:08 00:09:08 ATHLETISME CLUB OUTREAU 14,439 04:09
53 448 SELLIER CHRISTOPHE 00:43:09 V1M 22 00:09:09 00:07:11 ATHLETIQUE CLUB CAPELLOIS 14,433 04:09
54 233 KRONUS JOEL 00:43:12 V2M 4 00:09:12 00:02:42 SAINT MARTIN ATHLETISME 14,417 04:10
55 389 GRESSIER OLIVIER 00:43:15 V1M 23 00:09:15 00:07:17 FREVENT OLYMPIC CLUB 14,400 04:10
56 314 DUCROCQ CHRISTOPHE 00:43:21 V1M 24 00:09:21 00:07:23 WIMEREUX RUNNING CLUB 14,367 04:11
57 212 ROBART EDDY 00:43:25 V1M 25 00:09:25 00:07:27 CS NESLES 14,345 04:11
58 415 MERLIN LOIC 00:43:31 SEM 26 00:09:31 00:09:31 ATHLETISME CLUB OUTREAU 14,312 04:12
59 487 LEMAITRE LAURENT 00:43:41 V1M 26 00:09:41 00:07:43 NON LICENCIE 14,257 04:13
60 247 VANDAELE BENOIT 00:43:41 SEM 27 00:09:41 00:09:41 COURIR DANS LE LUMBROIS 14,257 04:13
61 423 MARTIN YANNICK 00:43:41 SEM 28 00:09:41 00:09:41 NON LICENCIE 14,257 04:13
62 506 LEBAS JULIEN 00:44:02 SEM 29 00:10:02 00:10:02 CPAM 14,144 04:15
63 370 BALY SYLVAIN 00:44:04 SEM 30 00:10:04 00:10:04 14,133 04:15
64 303 WIERRE LAURENT 00:44:08 SEM 31 00:10:08 00:10:08 ATHLETIQUE CLUB CAPELLOIS 14,112 04:15
65 298 LEVEL LINA 00:44:09 SEF 2 00:10:09 00:03:25 ATHLETIQUE CLUB CAPELLOIS 14,106 04:15
66 471 KUPCZYK MARIAN 00:44:13 V1M 27 00:10:13 00:08:15 PASS RUNNING 14,085 04:16
67 310 MIRMONT REMI 00:44:15 SEM 32 00:10:15 00:10:15 ENTENTE MARITIME ATHL. 14,075 04:16
68 495 DUCROCQ ARNAUD 00:44:24 V2M 5 00:10:24 00:03:54 ELAN FRUGEOIS 14,027 04:17
69 234 CAPPE ALEXANDRE 00:44:26 SEM 33 00:10:26 00:10:26 SAINT MARTIN ATHLETISME 14,017 04:17
70 404 DUFOUR ANTOINE 00:44:42 SEM 34 00:10:42 00:10:42 ATHLETISME CLUB OUTREAU 13,933 04:18
71 524 BATTESTI DAVID 00:44:45 SEM 35 00:10:45 00:10:45 TEAM RAKLETTE 13,917 04:19
72 313 TILLIER LUDOVIC 00:44:48 SEM 36 00:10:48 00:10:48 WIMEREUX RUNNING CLUB 13,902 04:19
73 441 BEAUMONT DOMINIQUE 00:44:49 V1M 28 00:10:49 00:08:51 NON LICENCIE 13,897 04:19
74 266 DUCLOIS EDDY 00:44:52 V1M 29 00:10:52 00:08:54 PATRIOTES CROSS DE GUINES 13,881 04:19
75 291 FARNWORTH GRAEME 00:44:53 V2M 6 00:10:53 00:04:23 ATHLETIQUE CLUB CAPELLOIS 13,876 04:19
76 497 SENET EMILIE 00:44:56 SEF 3 00:10:56 00:04:12 AS - Mark Athlétisme 13,861 04:20
77 601 BRUNELLE MAXIME 00:44:57 SEM 37 00:10:57 00:10:57 ALKA TRAIL 13,855 04:20
78 331 LE SCIELLOUR BRUNO 00:44:59 V2M 7 00:10:59 00:04:29 LE DRAPEAU 13,845 04:20
79 284 BARROIS CELINE 00:45:02 SEF 4 00:11:02 00:04:18 ATHLETIQUE CLUB CAPELLOIS 13,830 04:20
80 465 DEWEER NICOLAS 00:45:20 SEM 38 00:11:20 00:11:20 CS NESLES 13,738 04:22
81 254 ZULMEA DEVY 00:45:25 V1M 30 00:11:25 00:09:27 PATRIOTES CROSS DE GUINES 13,713 04:23
82 492 PHILIS JACQUES 00:45:28 V3M 1 00:11:28 00:00:00 TOUQUET OPALE ATHLETISME 13,698 04:23
83 440 CARPENTIER NICOLAS 00:45:29 SEM 39 00:11:29 00:11:29 13,693 04:23
84 292 FORICKY LUDOVIC 00:45:30 SEM 40 00:11:30 00:11:30 ATHLETIQUE CLUB CAPELLOIS 13,688 04:23
85 503 GUILBERT CHRISTOPHE 00:45:31 SEM 41 00:11:31 00:11:31 NON LICENCIE 13,683 04:23
86 270 BAILLET DAVID 00:45:31 V1M 31 00:11:31 00:09:33 PATRIOTES CROSS DE GUINES 13,683 04:23
87 475 LABOURDETTE SEBASTIEN 00:45:34 V1M 32 00:11:34 00:09:36 NON LICENCIE 13,668 04:23
88 61 BODART CLEMENT 00:45:36 JUM 1 00:11:36 00:00:00 ENTENTE MARITIME ATHL. 13,658 04:24
89 484 SAILLY MATHIEU 00:45:41 SEM 42 00:11:41 00:11:41 NON LICENCIE 13,633 04:24
90 217 SERRET LUDOVIC 00:45:42 SEM 43 00:11:42 00:11:42 NON LICENCIE 13,628 04:24
91 258 PIERRU SIGRID 00:45:48 V1F 3 00:11:48 00:04:01 PATRIOTES CROSS DE GUINES 13,598 04:25
92 257 QUENNEHEN HERVE 00:45:48 V1M 33 00:11:48 00:09:50 PATRIOTES CROSS DE GUINES 13,598 04:25
93 461 HERICOURT CHRISTOPHE 00:45:51 V1M 34 00:11:51 00:09:53 NON LICENCIE 13,583 04:25
94 290 DEMILLY MATTHIEU 00:45:53 SEM 44 00:11:53 00:11:53 ATHLETIQUE CLUB CAPELLOIS 13,574 04:25
95 293 GOUTEYRON PERRINE 00:45:54 SEF 5 00:11:54 00:05:10 ATHLETIQUE CLUB CAPELLOIS 13,569 04:25
96 277 GRESSIER YANNICK 00:45:55 V1M 35 00:11:55 00:09:57 TEAM TRAIL 62 13,564 04:25
97 213 BEGUE YANNICK 00:46:01 V1M 36 00:12:01 00:10:03 NON LICENCIE 13,534 04:26
98 318 DELANOY XAVIER 00:46:01 SEM 45 00:12:01 00:12:01 WIMEREUX RUNNING CLUB 13,534 04:26
99 340 FLAHAUT DANIEL 00:46:05 V1M 37 00:12:05 00:10:07 LE DRAPEAU 13,515 04:26
100 513 VERITE CEDRIC 00:46:14 SEM 46 00:12:14 00:12:14 SPORT PLUS 13,471 04:27
101 315 CHEUVA LOIC 00:46:15 V1M 38 00:12:15 00:10:17 WIMEREUX RUNNING CLUB 13,466 04:27
102 432 DEFIENNES ANTHONY 00:46:16 SEM 47 00:12:16 00:12:16 NON LICENCIE 13,461 04:27
103 502 VILLETTE FRANCIS 00:46:18 V2M 8 00:12:18 00:05:48 NON LICENCIE 13,451 04:28
104 401 CRETON JULIEN 00:46:26 SEM 48 00:12:26 00:12:26 ATHLETISME CLUB OUTREAU 13,413 04:28
105 386 SAULNIER FRANCOIS 00:46:32 SEM 49 00:12:32 00:12:32 13,384 04:29
106 279 GODART JEAN-CHRISTOPHE 00:46:33 V1M 39 00:12:33 00:10:35 TEAM TRAIL 62 13,379 04:29
107 245 BAILLY JEROME 00:46:38 SEM 50 00:12:38 00:12:38 COURIR DANS LE LUMBROIS 13,355 04:30
108 252 DENEZ ANNE-SOPHIE 00:46:39 V1F 4 00:12:39 00:04:52 PATRIOTES CROSS DE GUINES 13,350 04:30
109 255 BUY JACQUES 00:46:39 V2M 9 00:12:39 00:06:09 PATRIOTES CROSS DE GUINES 13,350 04:30
110 307 MENUGE PHILIPPE 00:46:44 V1M 40 00:12:44 00:10:46 ENTENTE MARITIME ATHL. 13,327 04:30
111 468 CRETEL LAURENT 00:46:45 V1M 41 00:12:45 00:10:47 CS NESLES 13,322 04:30
112 420 PIERRU JULIEN 00:46:50 SEM 51 00:12:50 00:12:50 ENTENTE MARITIME ATHL. 13,298 04:31
113 418 SORET FRANCK 00:46:58 SEM 52 00:12:58 00:12:58 ATHLETISME CLUB OUTREAU 13,260 04:31
114 498 DEFEBVIN BRUNO 00:47:00 V2M 10 00:13:00 00:06:30 ELAN FRUGEOIS 13,251 04:32
115 483 MANGARD NICOLAS 00:47:00 SEM 53 00:13:00 00:13:00 NON LICENCIE 13,251 04:32
116 301 NORMANT REMI 00:47:01 SEM 54 00:13:01 00:13:01 ATHLETIQUE CLUB CAPELLOIS 13,246 04:32
117 388 DELAVIEZ JEAN-MARC 00:47:04 V2M 11 00:13:04 00:06:34 FREVENT OLYMPIC CLUB 13,232 04:32
118 408 LENGAGNE GAETAN 00:47:05 SEM 55 00:13:05 00:13:05 ATHLETISME CLUB OUTREAU 13,228 04:32
119 375 PETIT JEAN-MARIE 00:47:09 V2M 12 00:13:09 00:06:39 NON LICENCIE 13,209 04:33
120 240 LEFRANC OLIVIER 00:47:12 V1M 42 00:13:12 00:11:14 SAINT MARTIN ATHLETISME 13,195 04:33
121 406 GIGADEN MATHILDE 00:47:16 V1F 5 00:13:16 00:05:29 ATHLETISME CLUB OUTREAU 13,176 04:33
122 518 RINGOT DAVID 00:47:21 V1M 43 00:13:21 00:11:23 NON LICENCIE 13,153 04:34
123 256 BATILLIOT DOMINIQUE 00:47:26 V2F 1 00:13:26 00:00:00 PATRIOTES CROSS DE GUINES 13,130 04:34
124 606 THERY JULIEN 00:47:29 SEM 56 00:13:29 00:13:29 NON LICENCIE 13,116 04:34
125 357 TALPAERT ARTHUR 00:47:30 SEM 57 00:13:30 00:13:30 13,112 04:35
126 322 HANON JEAN-PIERRE 00:47:35 V3M 2 00:13:35 00:02:07 LE DRAPEAU 13,089 04:35
127 242 PRUDHOMME FRANCKY 00:47:38 V1M 44 00:13:38 00:11:40 COURIR DANS LE LUMBROIS 13,075 04:35
128 400 CAULIER FREDDY 00:47:38 V2M 13 00:13:38 00:07:08 ATHLETISME CLUB OUTREAU 13,075 04:35
129 299 MAGNIER GERALD 00:47:47 V1M 45 00:13:47 00:11:49 ATHLETIQUE CLUB CAPELLOIS 13,034 04:36
130 287 BREQUEVILLE LIONEL 00:47:50 V1M 46 00:13:50 00:11:52 ATHLETIQUE CLUB CAPELLOIS 13,020 04:36
131 462 FAUCHILLE SEBASTIEN 00:47:50 V1M 47 00:13:50 00:11:52 NON LICENCIE 13,020 04:36
132 239 LEGAGNEUR MAURICE 00:47:52 V3M 3 00:13:52 00:02:24 SAINT MARTIN ATHLETISME 13,011 04:37
133 342 DAMIENS PHILIPPE 00:47:58 V1M 48 00:13:58 00:12:00 LE DRAPEAU 12,984 04:37
134 243 STEVENAERT MICHEL 00:48:02 V2M 14 00:14:02 00:07:32 COURIR DANS LE LUMBROIS 12,966 04:38
135 422 COLLIER GUILLAUME 00:48:05 SEM 58 00:14:05 00:14:05 CS NESLES 12,953 04:38
136 509 MALLIOPOULOS XAVIER 00:48:06 V2M 15 00:14:06 00:07:36 BERCK A C O 12,948 04:38
137 435 BERNARD AURELIEN 00:48:16 SEM 59 00:14:16 00:14:16 12,903 04:39
138 429 LEFRANC MATHEO 00:48:20 CAM 1 00:14:20 00:00:00 ELAN FRUGEOIS 12,886 04:39
139 602 BODEL MAXIME 00:48:20 SEM 60 00:14:20 00:14:20 NON LICENCIE 12,886 04:39
140 317 VALCKE PAULINE 00:48:24 SEF 6 00:14:24 00:07:40 WIMEREUX RUNNING CLUB 12,868 04:40
141 369 BALY PATRICK 00:48:26 V3M 4 00:14:26 00:02:58 NON LICENCIE 12,859 04:40
142 200 SABLON EMMANUEL 00:48:27 V1M 49 00:14:27 00:12:29 12,854 04:40
143 365 BARBAUT ISABELLE 00:48:32 V2F 2 00:14:32 00:01:06 A.S. MARCK 12,832 04:41
144 285 BETENCOURT THIERRY 00:48:35 V1M 50 00:14:35 00:12:37 ATHLETIQUE CLUB CAPELLOIS 12,819 04:41
145 362 WILLAERT JULIEN 00:48:35 V1M 51 00:14:35 00:12:37 NON LICENCIE 12,819 04:41
146 472 DUHAUTOY BENJAMIN 00:48:39 SEM 61 00:14:39 00:14:39 NON LICENCIE 12,802 04:41
147 260 THOOR ERIC 00:48:49 SEM 62 00:14:49 00:14:49 PATRIOTES CROSS DE GUINES 12,758 04:42
148 206 HIBON SEBASTIEN 00:48:57 SEM 63 00:14:57 00:14:57 12,723 04:43
149 434 HANNO PATRICK 00:49:00 SEM 64 00:15:00 00:15:00 12,710 04:43
150 442 BEGUE THIERRY 00:49:10 V1M 52 00:15:10 00:13:12 JOGGING CLUB LICQUOIS 12,667 04:44
151 476 POUILLY KEVIN 00:49:13 JUM 2 00:15:13 00:03:37 NON LICENCIE 12,654 04:44
152 345 HACQUEL MICHEL 00:49:14 V1M 53 00:15:14 00:13:16 LE DRAPEAU 12,650 04:45
153 356 DELATTAIGNANT ARNAUD 00:49:17 V1M 54 00:15:17 00:13:19 NON LICENCIE 12,637 04:45
154 320 VILLETTE FREDERIC 00:49:22 V1M 55 00:15:22 00:13:24 WIMEREUX RUNNING CLUB 12,616 04:45
155 316 SPILMONT HELENE 00:49:22 SEF 7 00:15:22 00:08:38 WIMEREUX RUNNING CLUB 12,616 04:45
156 393 LEMAITRE ROMUALD 00:49:28 SEM 65 00:15:28 00:15:28 12,590 04:46
157 447 OVION SYLVESTRE 00:49:29 V1M 56 00:15:29 00:13:31 ATHLETIQUE CLUB CAPELLOIS 12,586 04:46
158 246 LEMAITRE JEROME 00:49:30 V1M 57 00:15:30 00:13:32 COURIR DANS LE LUMBROIS 12,582 04:46
159 603 ROBART GUILLAUME 00:49:32 SEM 66 00:15:32 00:15:32 CS NESLES 12,573 04:46
160 335 DELETOILLE JULIEN 00:49:35 SEM 67 00:15:35 00:15:35 LE DRAPEAU 12,561 04:47
161 516 CAULIER VINCENT 00:49:37 SEM 68 00:15:37 00:15:37 NON LICENCIE 12,552 04:47
162 281 RENARD JULIEN 00:49:45 V1M 58 00:15:45 00:13:47 TEAM TRAIL 62 12,519 04:48
163 456 BLARET LAURENT 00:49:56 V1M 59 00:15:56 00:13:58 NON LICENCIE 12,473 04:49
164 300 NORMANT ALAIN 00:49:58 V2M 16 00:15:58 00:09:28 ATHLETIQUE CLUB CAPELLOIS 12,464 04:49
165 248 JOLY DAVID 00:50:02 V1M 60 00:16:02 00:14:04 PATRIOTES CROSS DE GUINES 12,448 04:49
166 450 LHERMILLIER FREDDY 00:50:10 V3M 5 00:16:10 00:04:42 TOUQUET OPALE ATHLETISME 12,415 04:50
167 485 DEBAS DAVID 00:50:14 SEM 69 00:16:14 00:16:14 NON LICENCIE 12,398 04:50
168 302 REGNIER CHRISTINE 00:50:14 V1F 6 00:16:14 00:08:27 ATHLETIQUE CLUB CAPELLOIS 12,398 04:50
169 210 FAIT JEAN-PHILIPPE 00:50:16 V1M 61 00:16:16 00:14:18 NON LICENCIE 12,390 04:51
170 383 LEONARD FABRICE 00:50:18 V1M 62 00:16:18 00:14:20 NON LICENCIE 12,382 04:51
171 359 CHARTAUX SUZEL 00:50:19 V1F 7 00:16:19 00:08:32 CS NESLES 12,378 04:51
172 466 CHARTAUX RAPHAEL 00:50:20 V1M 63 00:16:20 00:14:22 CS NESLES 12,374 04:51
173 271 LEFBEVRE ARNAUD 00:50:21 V1M 64 00:16:21 00:14:23 PATRIOTES CROSS DE GUINES 12,369 04:51
174 377 AGEZ DAVID 00:50:25 V1M 65 00:16:25 00:14:27 A.S. MARCK 12,353 04:51
175 228 DE SAINTE MARESVILLE THIERRY 00:50:29 V1M 66 00:16:29 00:14:31 NON LICENCIE 12,337 04:52
176 244 DECUPER JEAN SEBASTIEN 00:50:32 V1M 67 00:16:32 00:14:34 COURIR DANS LE LUMBROIS 12,325 04:52
177 344 DEGARDIN DAVID 00:50:35 SEM 70 00:16:35 00:16:35 LE DRAPEAU 12,312 04:52
178 333 NAJMI AICHA 00:50:37 V1F 8 00:16:37 00:08:50 LE DRAPEAU 12,304 04:53
179 501 REGNIER LAURENT 00:50:38 SEM 71 00:16:38 00:16:38 BOURTHES 12,300 04:53
180 374 SAILLY FABIEN 00:50:39 SEM 72 00:16:39 00:16:39 NON LICENCIE 12,296 04:53
181 280 LOEUILLIEUX JULIEN 00:50:41 SEM 73 00:16:41 00:16:41 TEAM TRAIL 62 12,288 04:53
182 523 CAFFIER JEROME 00:50:48 SEM 74 00:16:48 00:16:48 NON LICENCIE 12,260 04:54
183 289 BUE CHRISTOPHE 00:50:54 SEM 75 00:16:54 00:16:54 ATHLETIQUE CLUB CAPELLOIS 12,236 04:54
184 439 GEST SAMUEL 00:50:54 SEM 76 00:16:54 00:16:54 NON LICENCIE 12,236 04:54
185 330 PAQUES ERIC 00:50:56 V2M 17 00:16:56 00:10:26 LE DRAPEAU 12,228 04:54
186 350 CAULIER RUDOLPH 00:50:57 V1M 68 00:16:57 00:14:59 COLEMBERT 12,224 04:55
187 272 SIABAS JEAN-MICHEL 00:51:03 V2M 18 00:17:03 00:10:33 SAINT MARTIN ATHLETISME 12,200 04:55
188 480 KINTS THOMAS 00:51:11 SEM 77 00:17:11 00:17:11 NON LICENCIE 12,168 04:56
189 424 BOURGAIN YANNICK 00:51:13 SEM 78 00:17:13 00:17:13 NON LICENCIE 12,160 04:56
190 392 CALOIN DANIEL 00:51:13 SEM 79 00:17:13 00:17:13 NON LICENCIE 12,160 04:56
191 511 BAILLY AURELIE 00:51:15 SEF 8 00:17:15 00:10:31 COURIR DANS LE LUMBROIS 12,152 04:56
192 309 HOLUIGUE VERONIQUE 00:51:18 V1F 9 00:17:18 00:09:31 ENTENTE MARITIME ATHL. 12,140 04:57
193 327 MASZOTA DARIA 00:51:19 SEF 9 00:17:19 00:10:35 LE DRAPEAU 12,136 04:57
194 479 MUGUET ROMAIN 00:51:23 SEM 80 00:17:23 00:17:23 NON LICENCIE 12,121 04:57
195 229 RICHARD CHRISTINE 00:51:32 V2F 3 00:17:32 00:04:06 SAINT MARTIN ATHLETISME 12,085 04:58
196 338 MARIETTE YVETTE 00:51:33 V2F 4 00:17:33 00:04:07 LE DRAPEAU 12,081 04:58
197 505 LEROUGE DAVID 00:51:33 V1M 69 00:17:33 00:15:35 MARQUISE ATHLETISME 12,081 04:58
198 425 BOURGAIN ARNAUD 00:51:34 SEM 81 00:17:34 00:17:34 NON LICENCIE 12,078 04:58
199 421 DELATTRE DAVID 00:51:34 SEM 82 00:17:34 00:17:34 NON LICENCIE 12,078 04:58
200 514 DEBAS GERARD 00:51:34 V3M 6 00:17:34 00:06:06 NON LICENCIE 12,078 04:58
201 600 MORTIER ROMAIN 00:51:41 SEM 83 00:17:41 00:17:41 NON LICENCIE 12,050 04:59
202 457 LEPORCQ MARC 00:51:41 SEM 84 00:17:41 00:17:41 NON LICENCIE 12,050 04:59
203 216 DELATTRE BENOIT 00:51:44 SEM 85 00:17:44 00:17:44 NON LICENCIE 12,039 04:59
204 486 ROBERVAL GAUTIER 00:51:47 JUM 3 00:17:47 00:06:11 NON LICENCIE 12,027 04:59
205 223 DUMINIL NICOLAS 00:51:50 SEM 86 00:17:50 00:17:50 12,015 05:00
206 368 BIGOT MARIE-CHRISTINE 00:51:57 V2F 5 00:17:57 00:04:31 NON LICENCIE 11,988 05:00
207 355 WIDEHEM STEPHANE 00:52:01 V1M 70 00:18:01 00:16:03 ELAN FRUGEOIS 11,973 05:01
208 351 DETHOOR DOMINIQUE 00:52:07 V2M 19 00:18:07 00:11:37 COLEMBERT 11,950 05:01
209 398 WASIAK RICHARD 00:52:09 V1M 71 00:18:09 00:16:11 TEAM JULBO 11,942 05:01
210 201 VAUTION FABRICE 00:52:09 V1M 72 00:18:09 00:16:11 NON LICENCIE 11,942 05:01
211 405 FEUTRY PATRICK 00:52:12 V1M 73 00:18:12 00:16:14 ATHLETISME CLUB OUTREAU 11,931 05:02
212 203 BECQUART LUDOVIC 00:52:15 V1M 74 00:18:15 00:16:17 11,920 05:02
213 232 MALFOY MICHEL 00:52:17 V3M 7 00:18:17 00:06:49 SAINT MARTIN ATHLETISME 11,912 05:02
214 507 JOLY MATHIEU 00:52:19 V1M 75 00:18:19 00:16:21 COURIR DANS LE LUMBROIS 11,904 05:02
215 430 REMY DAVID 00:52:19 SEM 87 00:18:19 00:18:19 ALKA TRAIL 11,904 05:02
216 488 LECOUFFE AMANDINE 00:52:20 SEF 10 00:18:20 00:11:36 NON LICENCIE 11,901 05:03
217 417 PAQUES CHRISTOPHE 00:52:22 V1M 76 00:18:22 00:16:24 ATHLETISME CLUB OUTREAU 11,893 05:03
218 443 MILLE FRANCIS 00:52:32 V2M 20 00:18:32 00:12:02 NON LICENCIE 11,855 05:04
219 489 TOWMSEND ELISABETH 00:52:37 V1F 10 00:18:37 00:10:50 NON LICENCIE 11,837 05:04
220 452 CARON DIDIER 00:52:45 V1M 77 00:18:45 00:16:47 NON LICENCIE 11,807 05:05
221 278 GRESSIER DELPHINE 00:52:45 V1F 11 00:18:45 00:10:58 TEAM TRAIL 62 11,807 05:05
222 445 GROSJEAN CHRISTOPHE 00:53:00 V1M 78 00:19:00 00:17:02 11,751 05:06
223 604 BAHEUX JACKIE 00:53:09 V1M 79 00:19:09 00:17:11 NON LICENCIE 11,718 05:07
224 494 HENQUELLE BETTY 00:53:14 V1F 12 00:19:14 00:11:27 11,699 05:08
225 529 LAUDE MAGALI 00:53:15 V1F 13 00:19:15 00:11:28 ELAN FRUGEOIS 11,696 05:08
226 259 KILPATRICK JESSICA 00:53:19 SEF 11 00:19:19 00:12:35 PATRIOTES CROSS DE GUINES 11,681 05:08
227 521 JUILIEN QUENTIN 00:53:22 SEM 88 00:19:22 00:19:22 NON LICENCIE 11,670 05:08
228 352 PRUVOST ETIENNE 00:53:26 SEM 89 00:19:26 00:19:26 COLEMBERT 11,656 05:09
229 515 CRETON FABRICE 00:53:32 V1M 80 00:19:32 00:17:34 NON LICENCIE 11,634 05:09
230 295 HOLUIGUE VIRGINIE 00:53:36 SEF 12 00:19:36 00:12:52 ATHLETIQUE CLUB CAPELLOIS 11,619 05:10
231 231 MALFOY JEAN-PIERRE 00:53:39 V3M 8 00:19:39 00:08:11 SAINT MARTIN ATHLETISME 11,609 05:10
232 361 BERNARD HELENE 00:53:44 SEF 13 00:19:44 00:13:00 TOUQUET OPALE ATHLETISME 11,591 05:11
233 469 DUHAMEL THIERRY 00:53:51 V2M 21 00:19:51 00:13:21 LE DRAPEAU 11,565 05:11
234 384 LENGAGNE ANTOINE 00:53:52 SEM 90 00:19:52 00:19:52 NON LICENCIE 11,562 05:11
235 490 MATHON LUCIE 00:53:54 SEF 14 00:19:54 00:13:10 - 11,555 05:12
236 413 LIBERT MARIE-FRANCE 00:53:55 V3F 1 00:19:55 00:00:00 ATHLETISME CLUB OUTREAU 11,551 05:12
237 218 ROBART FRANCOIS 00:53:59 V2M 22 00:19:59 00:13:29 CS NESLES 11,537 05:12
238 347 DOUCHAIN EMMANUEL 00:54:05 V1M 81 00:20:05 00:18:07 NON LICENCIE 11,516 05:13
239 607 COMPIEGNE STEPHANE 00:54:14 SEM 91 00:20:14 00:20:14 NON LICENCIE 11,484 05:13
240 323 HANON LILIANE 00:54:23 V3F 2 00:20:23 00:00:28 LE DRAPEAU 11,452 05:14
241 437 BERQUEZ MICHEL 00:54:24 V1M 82 00:20:24 00:18:26 NON LICENCIE 11,449 05:14
242 436 BERQUEZ KARINE 00:54:25 V1F 14 00:20:25 00:12:38 NON LICENCIE 11,445 05:15
243 341 LEPERCQ FLORENT 00:54:32 V2M 23 00:20:32 00:14:02 LE DRAPEAU 11,421 05:15
244 334 CARON CHRISTELLE 00:54:36 V1F 15 00:20:36 00:12:49 LE DRAPEAU 11,407 05:16
245 225 VANIET FABIEN 00:55:00 SEM 92 00:21:00 00:21:00 11,324 05:18
246 454 LEGRAND OLIVIER 00:55:15 V1M 83 00:21:15 00:19:17 NON LICENCIE 11,272 05:19
247 455 CARLU FRANCK 00:55:15 V1M 84 00:21:15 00:19:17 BOURTHES 11,272 05:19
248 336 FAUQUEMBERGUE PHILIPPE 00:55:16 V2M 24 00:21:16 00:14:46 LE DRAPEAU 11,269 05:19
249 262 PLATIAU MARIE 00:55:27 SEF 15 00:21:27 00:14:43 PATRIOTES CROSS DE GUINES 11,232 05:21
250 360 BAILLIEU ROSELYNE 00:55:32 SEF 16 00:21:32 00:14:48 11,215 05:21
251 491 DUHAUT VALERY 00:55:33 V1M 85 00:21:33 00:19:35 COURIR A LA FOLIE 11,212 05:21
252 372 PINTE JORDAN 00:55:34 SEM 93 00:21:34 00:21:34 NON LICENCIE 11,208 05:21
253 353 PRUVOST MARIE-CECILE 00:55:43 V3F 3 00:21:43 00:01:48 COLEMBERT 11,178 05:22
254 493 CARDON STEPHANE 00:55:48 V1M 86 00:21:48 00:19:50 NON LICENCIE 11,161 05:23
255 473 CARLU ADRIEN 00:55:57 SEM 94 00:21:57 00:21:57 NON LICENCIE 11,131 05:23
256 366 LEBLANC LYDIE 00:56:04 V2F 6 00:22:04 00:08:38 A.S. MARCK 11,108 05:24
257 378 SCOTTE AURELIEN 00:56:04 SEM 95 00:22:04 00:22:04 NON LICENCIE 11,108 05:24
258 397 LOISEL VINCENT 00:56:10 V1M 87 00:22:10 00:20:12 BOULOGNE ATHLETIQUE CLUB 11,088 05:25
259 500 DEBOVE JEAN MARC 00:56:11 V3M 9 00:22:11 00:10:43 NON LICENCIE 11,085 05:25
260 390 REGNIER ANDRE 00:56:13 V3M 10 00:22:13 00:10:45 ELAN FRUGEOIS 11,079 05:25
261 396 DUBOQUET LAURENT 00:56:17 V1M 88 00:22:17 00:20:19 11,065 05:25
262 394 CAPONE LAURA 00:56:18 SEF 17 00:22:18 00:15:34 NON LICENCIE 11,062 05:25
263 261 BOIS STEPHANE 00:56:25 V1M 89 00:22:25 00:20:27 PATRIOTES CROSS DE GUINES 11,039 05:26
264 202 DELCUVE VIRGINIE 00:56:25 V1F 16 00:22:25 00:14:38 NON LICENCIE 11,039 05:26
265 348 AVISSE SEBASTIEN 00:56:31 SEM 96 00:22:31 00:22:31 COLEMBERT 11,020 05:27
266 209 BARLET JEROME 00:56:34 V1M 90 00:22:34 00:20:36 NON LICENCIE 11,010 05:27
267 337 FAUQUEMBERGUE VERONIQUE 00:56:35 V1F 17 00:22:35 00:14:48 LE DRAPEAU 11,007 05:27
268 329 LEBEGUE THERESE 00:56:35 V2F 7 00:22:35 00:09:09 LE DRAPEAU 11,007 05:27
269 391 REGNIER ANNE 00:56:47 V1F 18 00:22:47 00:15:00 ELAN FRUGEOIS 10,968 05:28
270 444 BLARY JEAN-PAUL 00:56:50 V3M 11 00:22:50 00:11:22 NON LICENCIE 10,958 05:29
271 512 MARGUERITE PATRICK 00:56:51 SEM 97 00:22:51 00:22:51 NOVEBAT 10,955 05:29
272 227 CHOCHOY SYLVIE 00:57:14 V2F 8 00:23:14 00:09:48 TEAM TRAIL 62 10,882 05:31
273 358 THOORIS LAURENT 00:58:02 V1M 91 00:24:02 00:22:04 NON LICENCIE 10,732 05:35
274 428 MERLIN DAVID 00:58:08 V1M 92 00:24:08 00:22:10 10,713 05:36
275 241 BAYARD DAVID 00:58:19 V1M 93 00:24:19 00:22:21 COURIR DANS LE LUMBROIS 10,680 05:37
276 496 GOUDAL NATHALIE 00:58:21 V2F 9 00:24:21 00:10:55 A.S. MARCK 10,674 05:37
277 207 NOEL SANDRINE 00:58:46 SEF 18 00:24:46 00:18:02 ELAN FRUGEOIS 10,598 05:40
278 208 COLLIGNON JEROME 00:58:46 V1M 94 00:24:46 00:22:48 - 10,598 05:40
279 354 MONBAILLARD FABRICE 00:58:49 V1M 95 00:24:49 00:22:51 10,589 05:40
280 474 WADOUX ROMAIN 00:58:52 SEM 98 00:24:52 00:24:52 NON LICENCIE 10,580 05:40
281 367 LECOMTE FREDDY 00:58:54 V1M 96 00:24:54 00:22:56 NON LICENCIE 10,574 05:40
282 453 QUILLET LUDOVIC 00:58:55 V1M 97 00:24:55 00:22:57 NON LICENCIE 10,571 05:41
283 319 DUPUREUR EMMANUEL 00:59:05 V1M 98 00:25:05 00:23:07 WIMEREUX RUNNING CLUB 10,541 05:42
284 527 CHIVET CATHERINE 00:59:05 V2F 10 00:25:05 00:11:39 NON LICENCIE 10,541 05:42
285 237 MAGNIER BEATRICE 00:59:07 V2F 11 00:25:07 00:11:41 SAINT MARTIN ATHLETISME 10,535 05:42
286 385 POURRE PASCAL 00:59:56 V2M 25 00:25:56 00:19:26 NON LICENCIE 10,392 05:46
287 276 DELLIAUX DELPHINE 01:00:05 SEF 19 00:26:05 00:19:21 TEAM TRAIL 62 10,366 05:47
288 282 THERY MARTINE 01:00:13 V2F 12 00:26:13 00:12:47 TEAM TRAIL 62 10,343 05:48
289 449 DELATTRE FABIENNE 01:00:13 V2F 13 00:26:13 00:12:47 NON LICENCIE 10,343 05:48
290 467 CRETEL LAURENCE 01:00:48 V1F 19 00:26:48 00:19:01 CS NESLES 10,243 05:51
291 236 CARON LYUBA 01:00:48 V3F 4 00:26:48 00:06:53 SAINT MARTIN ATHLETISME 10,243 05:51
292 226 HONVAULT ALAIN 01:00:55 V2M 26 00:26:55 00:20:25 TEAM TRAIL 62 10,224 05:52
293 407 GOURNAY AUDREY 01:01:01 SEF 20 00:27:01 00:20:17 ATHLETISME CLUB OUTREAU 10,207 05:53
294 499 DEFEBVIN FRANCOISE 01:01:27 V2F 14 00:27:27 00:14:01 ELAN FRUGEOIS 10,135 05:55
295 364 MOREAU FREDDY 01:02:03 V1M 99 00:28:03 00:26:05 10,037 05:59
296 363 MOREAU LUDIVINE 01:02:04 SEF 21 00:28:04 00:21:20 10,034 05:59
297 395 DE GAVRILOFF MAUDE 01:02:06 SEF 22 00:28:06 00:21:22 NON LICENCIE 10,029 05:59
298 321 LEPRETRE ISABELLE 01:02:06 V1F 20 00:28:06 00:20:19 NON LICENCIE 10,029 05:59
299 463 RAUX ANDRE 01:02:06 V3M 12 00:28:06 00:16:38 NON LICENCIE 10,029 05:59
300 324 MODOLO FANNY 01:02:14 V1F 21 00:28:14 00:20:27 LE DRAPEAU 10,007 06:00
301 412 LESAFFRE NADEGE 01:02:39 V1F 22 00:28:39 00:20:52 ATHLETISME CLUB OUTREAU 9,941 06:02
302 224 PONT MARJORIE 01:03:05 SEF 23 00:29:05 00:22:21 9,873 06:05
303 265 FEUTRY MATHILDE 01:03:33 SEF 24 00:29:33 00:22:49 PATRIOTES CROSS DE GUINES 9,800 06:07
304 402 DELABY JULIEN 01:04:05 SEM 99 00:30:05 00:30:05 ATHLETISME CLUB OUTREAU 9,719 06:10
305 464 DEBOVE ISABELLE 01:04:24 V2F 15 00:30:24 00:16:58 NON LICENCIE 9,671 06:12
306 230 LECLERCQ ANNE-MARIE 01:04:35 V3F 5 00:30:35 00:10:40 SAINT MARTIN ATHLETISME 9,643 06:13
307 219 SAUVAGE EDITH 01:04:37 V2F 16 00:30:37 00:17:11 NON LICENCIE 9,638 06:14
308 414 MAILLOT MELANIE 01:04:38 SEF 25 00:30:38 00:23:54 ATHLETISME CLUB OUTREAU 9,636 06:14
309 451 CULEMBOURG LAURENT 01:05:58 V1M 100 00:31:58 00:30:00 NON LICENCIE 9,441 06:21
310 204 BECQUART MARINA 01:07:05 SEF 26 00:33:05 00:26:21 9,284 06:28
311 205 GARBE FREDERIC 01:07:05 V2M 27 00:33:05 00:26:35 9,284 06:28
312 522 SINGLE MARIE 01:07:21 SEF 27 00:33:21 00:26:37 NON LICENCIE 9,247 06:29
313 477 BERKOUM LAETITIA 01:07:40 SEF 28 00:33:40 00:26:56 BOULOGNE ATHLETIQUE CLUB 9,204 06:31
314 349 CAULIER ANGELIQUE 01:07:45 V1F 23 00:33:45 00:25:58 COLEMBERT 9,193 06:32
315 332 RIQUIER MARIELLE 01:08:38 V2F 17 00:34:38 00:21:12 LE DRAPEAU 9,074 06:37
316 508 GRARD FREDERIC 01:09:21 SEM 100 00:35:21 00:35:21 COURIR DANS LE LUMBROIS 8,981 06:41
317 373 DELBARRE SEBASTIEN 01:10:14 SEM 101 00:36:14 00:36:14 8,868 06:46
318 526 MASSON BETTY 01:10:30 SEF 29 00:36:30 00:29:46 NON LICENCIE 8,834 06:48
319 525 MAGNIER MICKAEL 01:10:30 SEM 102 00:36:30 00:36:30 NON LICENCIE 8,834 06:48
320 379 LIGNIER MARIE FRANCE 01:14:16 V4F 1 00:40:16 00:00:00 PINK LADIES 8,386 07:09